This is the latest recevied weather packets stored in our database for station/object OK1UZT-14. If no packets are shown the sender has not sent any weather packets the latest 10 day(s).
| Time | Temp. | Humidity | Pressure | Rain* | Wind** | Luminosity | Snow |
|---|---|---|---|---|---|---|---|
| 1788150015 | 17.78° C | 69% | 1014.6 hPa | - | - | - | - |
| 1788149415 | 17.78° C | 68% | 1014.6 hPa | - | - | - | - |
| 1788148815 | 17.22° C | 70% | 1014.6 hPa | - | - | - | - |
| 1788148215 | 17.22° C | 70% | 1014.7 hPa | - | - | - | - |
| 1788147615 | 17.22° C | 70% | 1014.8 hPa | - | - | - | - |
| 1788147015 | 17.22° C | 71% | 1014.7 hPa | - | - | - | - |
| 1788145815 | 17.22° C | 70% | 1015 hPa | - | - | - | - |
| 1788144015 | 17.22° C | 69% | 1014.9 hPa | - | - | - | - |
| 1788142815 | 17.78° C | 69% | 1015 hPa | - | - | - | - |
| 1788123015 | 20.56° C | 59% | 1015.8 hPa | - | - | - | - |
| 1788118215 | 21.67° C | 55% | 1015.3 hPa | - | - | - | - |
| 1788115815 | 22.78° C | 52% | 1015.4 hPa | - | - | - | - |
| 1788114617 | 22.78° C | 52% | 1015.4 hPa | - | - | - | - |
| 1788105013 | 26.67° C | 42% | 1014.8 hPa | - | - | - | - |
| 1788103813 | 27.22° C | 41% | 1014.9 hPa | - | - | - | - |
| 1788103213 | 27.22° C | 41% | 1015 hPa | - | - | - | - |
| 1788102613 | 26.67° C | 42% | 1015 hPa | - | - | - | - |
| 1788100813 | 26.11° C | 42% | 1015.2 hPa | - | - | - | - |
| 1788100213 | 26.11° C | 42% | 1015.4 hPa | - | - | - | - |
| 1788099613 | 26.11° C | 43% | 1015.4 hPa | - | - | - | - |
| 1788099013 | 26.11° C | 43% | 1015.4 hPa | - | - | - | - |
| 1788097213 | 26.67° C | 42% | 1015.4 hPa | - | - | - | - |
| 1788095414 | 26.67° C | 43% | 1015.7 hPa | - | - | - | - |
| 1788093013 | 26.11° C | 43% | 1015.9 hPa | - | - | - | - |
| 1788092413 | 25.56° C | 43% | 1016 hPa | - | - | - | - |
* Rain since midnight (hover to see other rain measurements)
** Current wind speed in m/s (hover to see current wind gust speed)